sensor_id;sensor_type;location;lat;lon;timestamp;temperature;humidity
75799;DHT22;70933;44.692;37.776;2023-12-14T00:00:42;25.61;34.71
75799;DHT22;70933;44.692;37.776;2023-12-14T00:01:44;25.61;34.72
75799;DHT22;70933;44.692;37.776;2023-12-14T00:02:47;25.60;34.75
75799;DHT22;70933;44.692;37.776;2023-12-14T00:03:48;25.60;34.76
75799;DHT22;70933;44.692;37.776;2023-12-14T00:04:50;25.60;34.74
75799;DHT22;70933;44.692;37.776;2023-12-14T00:05:51;25.60;34.69
75799;DHT22;70933;44.692;37.776;2023-12-14T00:06:53;25.60;34.70
75799;DHT22;70933;44.692;37.776;2023-12-14T00:07:54;25.60;34.71
75799;DHT22;70933;44.692;37.776;2023-12-14T00:08:56;25.61;34.70
75799;DHT22;70933;44.692;37.776;2023-12-14T00:09:57;25.61;34.77
75799;DHT22;70933;44.692;37.776;2023-12-14T00:11:04;25.61;34.73
75799;DHT22;70933;44.692;37.776;2023-12-14T00:12:06;25.60;34.71
75799;DHT22;70933;44.692;37.776;2023-12-14T00:13:07;25.61;34.70
75799;DHT22;70933;44.692;37.776;2023-12-14T00:14:09;25.60;34.72
75799;DHT22;70933;44.692;37.776;2023-12-14T00:15:10;25.59;34.73
75799;DHT22;70933;44.692;37.776;2023-12-14T00:16:12;25.60;34.75
75799;DHT22;70933;44.692;37.776;2023-12-14T00:17:14;25.59;34.70
75799;DHT22;70933;44.692;37.776;2023-12-14T00:18:15;25.61;34.75
75799;DHT22;70933;44.692;37.776;2023-12-14T00:19:17;25.59;34.71
75799;DHT22;70933;44.692;37.776;2023-12-14T00:20:19;25.60;34.71
75799;DHT22;70933;44.692;37.776;2023-12-14T00:21:20;25.60;34.73
75799;DHT22;70933;44.692;37.776;2023-12-14T00:22:22;25.60;34.73
75799;DHT22;70933;44.692;37.776;2023-12-14T00:23:24;25.61;34.73
75799;DHT22;70933;44.692;37.776;2023-12-14T00:24:25;25.61;34.72
75799;DHT22;70933;44.692;37.776;2023-12-14T00:25:27;25.60;34.71
75799;DHT22;70933;44.692;37.776;2023-12-14T00:26:29;25.59;34.71
75799;DHT22;70933;44.692;37.776;2023-12-14T00:27:31;25.61;34.72
75799;DHT22;70933;44.692;37.776;2023-12-14T00:28:32;25.61;34.71
75799;DHT22;70933;44.692;37.776;2023-12-14T00:29:34;25.61;34.70
75799;DHT22;70933;44.692;37.776;2023-12-14T00:30:35;25.60;34.73
75799;DHT22;70933;44.692;37.776;2023-12-14T00:31:37;25.60;34.74
75799;DHT22;70933;44.692;37.776;2023-12-14T00:32:38;25.59;34.75
75799;DHT22;70933;44.692;37.776;2023-12-14T00:33:40;25.61;34.72
75799;DHT22;70933;44.692;37.776;2023-12-14T00:34:42;25.60;34.71
75799;DHT22;70933;44.692;37.776;2023-12-14T00:35:43;25.59;34.75
75799;DHT22;70933;44.692;37.776;2023-12-14T00:36:45;25.60;34.75
75799;DHT22;70933;44.692;37.776;2023-12-14T00:37:46;25.61;34.73
75799;DHT22;70933;44.692;37.776;2023-12-14T00:38:48;25.60;34.73
75799;DHT22;70933;44.692;37.776;2023-12-14T00:39:49;25.60;34.73
75799;DHT22;70933;44.692;37.776;2023-12-14T00:40:51;25.61;34.76
75799;DHT22;70933;44.692;37.776;2023-12-14T00:41:52;25.61;34.73
75799;DHT22;70933;44.692;37.776;2023-12-14T00:42:54;25.60;34.74
75799;DHT22;70933;44.692;37.776;2023-12-14T00:43:56;25.59;34.76
75799;DHT22;70933;44.692;37.776;2023-12-14T00:44:57;25.61;34.73
75799;DHT22;70933;44.692;37.776;2023-12-14T00:45:59;25.60;34.72
75799;DHT22;70933;44.692;37.776;2023-12-14T00:47:01;25.60;34.76
75799;DHT22;70933;44.692;37.776;2023-12-14T00:48:04;25.61;34.76
75799;DHT22;70933;44.692;37.776;2023-12-14T00:49:05;25.60;34.73
75799;DHT22;70933;44.692;37.776;2023-12-14T00:50:07;25.60;34.77
75799;DHT22;70933;44.692;37.776;2023-12-14T00:51:09;25.61;34.77
75799;DHT22;70933;44.692;37.776;2023-12-14T00:52:10;25.59;34.76
75799;DHT22;70933;44.692;37.776;2023-12-14T00:53:12;25.60;34.76
75799;DHT22;70933;44.692;37.776;2023-12-14T00:54:13;25.60;34.77
75799;DHT22;70933;44.692;37.776;2023-12-14T00:55:15;25.61;34.79
75799;DHT22;70933;44.692;37.776;2023-12-14T00:56:16;25.60;34.77
75799;DHT22;70933;44.692;37.776;2023-12-14T00:57:18;25.61;34.76
75799;DHT22;70933;44.692;37.776;2023-12-14T00:58:19;25.61;34.79
75799;DHT22;70933;44.692;37.776;2023-12-14T00:59:21;25.60;34.77
75799;DHT22;70933;44.692;37.776;2023-12-14T01:00:23;25.60;34.75
75799;DHT22;70933;44.692;37.776;2023-12-14T01:01:25;25.60;34.79
75799;DHT22;70933;44.692;37.776;2023-12-14T01:02:26;25.61;34.79
75799;DHT22;70933;44.692;37.776;2023-12-14T01:03:28;25.60;34.78
75799;DHT22;70933;44.692;37.776;2023-12-14T01:04:29;25.60;34.80
75799;DHT22;70933;44.692;37.776;2023-12-14T01:05:31;25.61;34.78
75799;DHT22;70933;44.692;37.776;2023-12-14T01:06:32;25.61;34.75
75799;DHT22;70933;44.692;37.776;2023-12-14T01:07:34;25.60;34.75
75799;DHT22;70933;44.692;37.776;2023-12-14T01:08:35;25.59;34.77
75799;DHT22;70933;44.692;37.776;2023-12-14T01:09:37;25.61;34.79
75799;DHT22;70933;44.692;37.776;2023-12-14T01:10:39;25.61;34.77
75799;DHT22;70933;44.692;37.776;2023-12-14T01:11:40;25.60;34.79
75799;DHT22;70933;44.692;37.776;2023-12-14T01:12:42;25.60;34.78
75799;DHT22;70933;44.692;37.776;2023-12-14T01:13:43;25.60;34.79
75799;DHT22;70933;44.692;37.776;2023-12-14T01:14:45;25.61;34.77
75799;DHT22;70933;44.692;37.776;2023-12-14T01:15:46;25.60;34.80
75799;DHT22;70933;44.692;37.776;2023-12-14T01:16:48;25.60;34.77
75799;DHT22;70933;44.692;37.776;2023-12-14T01:17:49;25.59;34.80
75799;DHT22;70933;44.692;37.776;2023-12-14T01:18:51;25.58;34.79
75799;DHT22;70933;44.692;37.776;2023-12-14T01:19:52;25.60;34.80
75799;DHT22;70933;44.692;37.776;2023-12-14T01:20:54;25.59;34.79
75799;DHT22;70933;44.692;37.776;2023-12-14T01:21:56;25.60;34.83
75799;DHT22;70933;44.692;37.776;2023-12-14T01:22:57;25.60;34.82
75799;DHT22;70933;44.692;37.776;2023-12-14T01:23:59;25.60;34.79
75799;DHT22;70933;44.692;37.776;2023-12-14T01:25:01;25.60;34.82
75799;DHT22;70933;44.692;37.776;2023-12-14T01:26:06;25.60;34.79
75799;DHT22;70933;44.692;37.776;2023-12-14T01:27:07;25.61;34.81
75799;DHT22;70933;44.692;37.776;2023-12-14T01:28:11;25.61;34.80
75799;DHT22;70933;44.692;37.776;2023-12-14T01:29:15;25.60;34.76
75799;DHT22;70933;44.692;37.776;2023-12-14T01:30:16;25.60;34.79
75799;DHT22;70933;44.692;37.776;2023-12-14T01:31:18;25.60;34.79
75799;DHT22;70933;44.692;37.776;2023-12-14T01:32:20;25.61;34.80
75799;DHT22;70933;44.692;37.776;2023-12-14T01:33:21;25.60;34.77
75799;DHT22;70933;44.692;37.776;2023-12-14T01:34:23;25.61;34.79
75799;DHT22;70933;44.692;37.776;2023-12-14T01:35:24;25.60;34.79
75799;DHT22;70933;44.692;37.776;2023-12-14T01:36:26;25.60;34.81
75799;DHT22;70933;44.692;37.776;2023-12-14T01:37:28;25.60;34.82
75799;DHT22;70933;44.692;37.776;2023-12-14T01:38:29;25.61;34.78
75799;DHT22;70933;44.692;37.776;2023-12-14T01:39:31;25.61;34.82
75799;DHT22;70933;44.692;37.776;2023-12-14T01:40:32;25.59;34.80
75799;DHT22;70933;44.692;37.776;2023-12-14T01:41:34;25.59;34.81
75799;DHT22;70933;44.692;37.776;2023-12-14T01:42:36;25.59;34.79
75799;DHT22;70933;44.692;37.776;2023-12-14T01:43:37;25.59;34.81
75799;DHT22;70933;44.692;37.776;2023-12-14T01:44:39;25.61;34.84
75799;DHT22;70933;44.692;37.776;2023-12-14T01:45:40;25.59;34.83
75799;DHT22;70933;44.692;37.776;2023-12-14T01:46:42;25.61;34.82
75799;DHT22;70933;44.692;37.776;2023-12-14T01:47:43;25.60;34.84
75799;DHT22;70933;44.692;37.776;2023-12-14T01:48:45;25.60;34.79
75799;DHT22;70933;44.692;37.776;2023-12-14T01:49:46;25.60;34.83
75799;DHT22;70933;44.692;37.776;2023-12-14T01:50:48;25.60;34.81
75799;DHT22;70933;44.692;37.776;2023-12-14T01:51:49;25.60;34.81
75799;DHT22;70933;44.692;37.776;2023-12-14T01:52:51;25.60;34.82
75799;DHT22;70933;44.692;37.776;2023-12-14T01:53:52;25.60;34.81
75799;DHT22;70933;44.692;37.776;2023-12-14T01:54:54;25.61;34.81
75799;DHT22;70933;44.692;37.776;2023-12-14T01:55:56;25.60;34.80
75799;DHT22;70933;44.692;37.776;2023-12-14T01:56:58;25.61;34.82
75799;DHT22;70933;44.692;37.776;2023-12-14T01:58:00;25.60;34.80
75799;DHT22;70933;44.692;37.776;2023-12-14T01:59:01;25.61;34.77
75799;DHT22;70933;44.692;37.776;2023-12-14T02:00:04;25.61;34.79
75799;DHT22;70933;44.692;37.776;2023-12-14T02:01:35;25.60;34.82
75799;DHT22;70933;44.692;37.776;2023-12-14T02:02:38;25.59;34.83
75799;DHT22;70933;44.692;37.776;2023-12-14T02:03:49;25.60;34.78
75799;DHT22;70933;44.692;37.776;2023-12-14T02:04:50;25.61;34.79
75799;DHT22;70933;44.692;37.776;2023-12-14T02:05:52;25.60;34.79
75799;DHT22;70933;44.692;37.776;2023-12-14T02:06:54;25.59;34.84
75799;DHT22;70933;44.692;37.776;2023-12-14T02:07:55;25.59;34.82
75799;DHT22;70933;44.692;37.776;2023-12-14T02:08:58;25.61;34.83
75799;DHT22;70933;44.692;37.776;2023-12-14T02:09:59;25.60;34.79
75799;DHT22;70933;44.692;37.776;2023-12-14T02:11:01;25.60;34.82
75799;DHT22;70933;44.692;37.776;2023-12-14T02:12:02;25.60;34.83
75799;DHT22;70933;44.692;37.776;2023-12-14T02:13:04;25.58;34.84
75799;DHT22;70933;44.692;37.776;2023-12-14T02:14:08;25.58;34.86
75799;DHT22;70933;44.692;37.776;2023-12-14T02:15:10;25.59;34.86
75799;DHT22;70933;44.692;37.776;2023-12-14T02:16:11;25.58;34.82
75799;DHT22;70933;44.692;37.776;2023-12-14T02:17:13;25.60;34.83
75799;DHT22;70933;44.692;37.776;2023-12-14T02:18:15;25.59;34.80
75799;DHT22;70933;44.692;37.776;2023-12-14T02:19:16;25.58;34.82
75799;DHT22;70933;44.692;37.776;2023-12-14T02:20:18;25.59;34.82
75799;DHT22;70933;44.692;37.776;2023-12-14T02:21:19;25.59;34.82
75799;DHT22;70933;44.692;37.776;2023-12-14T02:22:21;25.59;34.84
75799;DHT22;70933;44.692;37.776;2023-12-14T02:23:23;25.59;34.82
75799;DHT22;70933;44.692;37.776;2023-12-14T02:24:24;25.59;34.83
75799;DHT22;70933;44.692;37.776;2023-12-14T02:25:26;25.58;34.82
75799;DHT22;70933;44.692;37.776;2023-12-14T02:26:27;25.59;34.82
75799;DHT22;70933;44.692;37.776;2023-12-14T02:27:29;25.58;34.84
75799;DHT22;70933;44.692;37.776;2023-12-14T02:28:31;25.58;34.86
75799;DHT22;70933;44.692;37.776;2023-12-14T02:29:32;25.59;34.86
75799;DHT22;70933;44.692;37.776;2023-12-14T02:30:34;25.59;34.82
75799;DHT22;70933;44.692;37.776;2023-12-14T02:31:35;25.59;34.81
75799;DHT22;70933;44.692;37.776;2023-12-14T02:32:38;25.60;34.81
75799;DHT22;70933;44.692;37.776;2023-12-14T02:33:39;25.60;34.78
75799;DHT22;70933;44.692;37.776;2023-12-14T02:34:41;25.60;34.79
75799;DHT22;70933;44.692;37.776;2023-12-14T02:35:43;25.60;34.80
75799;DHT22;70933;44.692;37.776;2023-12-14T02:36:44;25.59;34.82
75799;DHT22;70933;44.692;37.776;2023-12-14T02:37:46;25.61;34.76
75799;DHT22;70933;44.692;37.776;2023-12-14T02:38:47;25.60;34.79
75799;DHT22;70933;44.692;37.776;2023-12-14T02:39:49;25.60;34.79
75799;DHT22;70933;44.692;37.776;2023-12-14T02:40:51;25.61;34.78
75799;DHT22;70933;44.692;37.776;2023-12-14T02:41:54;25.61;34.76
75799;DHT22;70933;44.692;37.776;2023-12-14T02:42:55;25.61;34.78
75799;DHT22;70933;44.692;37.776;2023-12-14T02:43:57;25.60;34.76
75799;DHT22;70933;44.692;37.776;2023-12-14T02:44:58;25.60;34.77
75799;DHT22;70933;44.692;37.776;2023-12-14T02:46:00;25.60;34.76
75799;DHT22;70933;44.692;37.776;2023-12-14T02:47:03;25.61;34.79
75799;DHT22;70933;44.692;37.776;2023-12-14T02:48:05;25.60;34.78
75799;DHT22;70933;44.692;37.776;2023-12-14T02:49:06;25.59;34.79
75799;DHT22;70933;44.692;37.776;2023-12-14T02:50:08;25.60;34.80
75799;DHT22;70933;44.692;37.776;2023-12-14T02:51:14;25.59;34.77
75799;DHT22;70933;44.692;37.776;2023-12-14T02:52:16;25.59;34.82
75799;DHT22;70933;44.692;37.776;2023-12-14T02:53:17;25.60;34.78
75799;DHT22;70933;44.692;37.776;2023-12-14T02:54:19;25.60;34.81
75799;DHT22;70933;44.692;37.776;2023-12-14T02:55:21;25.59;34.78
75799;DHT22;70933;44.692;37.776;2023-12-14T02:56:22;25.61;34.79
75799;DHT22;70933;44.692;37.776;2023-12-14T02:57:24;25.60;34.76
75799;DHT22;70933;44.692;37.776;2023-12-14T02:58:25;25.59;34.80
75799;DHT22;70933;44.692;37.776;2023-12-14T02:59:27;25.60;34.76
75799;DHT22;70933;44.692;37.776;2023-12-14T03:00:29;25.61;34.79
75799;DHT22;70933;44.692;37.776;2023-12-14T03:01:30;25.60;34.78
75799;DHT22;70933;44.692;37.776;2023-12-14T03:02:32;25.61;34.76
75799;DHT22;70933;44.692;37.776;2023-12-14T03:03:33;25.61;34.77
75799;DHT22;70933;44.692;37.776;2023-12-14T03:04:37;25.60;34.76
75799;DHT22;70933;44.692;37.776;2023-12-14T03:05:38;25.61;34.76
75799;DHT22;70933;44.692;37.776;2023-12-14T03:06:40;25.59;34.76
75799;DHT22;70933;44.692;37.776;2023-12-14T03:07:42;25.60;34.79
75799;DHT22;70933;44.692;37.776;2023-12-14T03:08:43;25.60;34.77
75799;DHT22;70933;44.692;37.776;2023-12-14T03:09:45;25.60;34.79
75799;DHT22;70933;44.692;37.776;2023-12-14T03:10:46;25.61;34.78
75799;DHT22;70933;44.692;37.776;2023-12-14T03:11:48;25.60;34.77
75799;DHT22;70933;44.692;37.776;2023-12-14T03:12:50;25.61;34.77
75799;DHT22;70933;44.692;37.776;2023-12-14T03:13:52;25.60;34.79
75799;DHT22;70933;44.692;37.776;2023-12-14T03:14:53;25.61;34.76
75799;DHT22;70933;44.692;37.776;2023-12-14T03:15:55;25.61;34.76
75799;DHT22;70933;44.692;37.776;2023-12-14T03:16:56;25.60;34.79
75799;DHT22;70933;44.692;37.776;2023-12-14T03:17:58;25.60;34.77
75799;DHT22;70933;44.692;37.776;2023-12-14T03:19:00;25.60;34.77
75799;DHT22;70933;44.692;37.776;2023-12-14T03:20:02;25.61;34.76
75799;DHT22;70933;44.692;37.776;2023-12-14T03:21:06;25.60;34.77
75799;DHT22;70933;44.692;37.776;2023-12-14T03:22:08;25.60;34.80
75799;DHT22;70933;44.692;37.776;2023-12-14T03:23:10;25.60;34.77
75799;DHT22;70933;44.692;37.776;2023-12-14T03:24:11;25.60;34.80
75799;DHT22;70933;44.692;37.776;2023-12-14T03:25:13;25.61;34.79
75799;DHT22;70933;44.692;37.776;2023-12-14T03:26:15;25.60;34.78
75799;DHT22;70933;44.692;37.776;2023-12-14T03:27:16;25.60;34.78
75799;DHT22;70933;44.692;37.776;2023-12-14T03:28:18;25.61;34.79
75799;DHT22;70933;44.692;37.776;2023-12-14T03:29:19;25.60;34.81
75799;DHT22;70933;44.692;37.776;2023-12-14T03:30:22;25.62;34.81
75799;DHT22;70933;44.692;37.776;2023-12-14T03:31:23;25.61;34.76
75799;DHT22;70933;44.692;37.776;2023-12-14T03:32:25;25.60;34.76
75799;DHT22;70933;44.692;37.776;2023-12-14T03:33:27;25.61;34.80
75799;DHT22;70933;44.692;37.776;2023-12-14T03:34:28;25.62;34.80
75799;DHT22;70933;44.692;37.776;2023-12-14T03:35:30;25.61;34.80
75799;DHT22;70933;44.692;37.776;2023-12-14T03:36:31;25.61;34.79
75799;DHT22;70933;44.692;37.776;2023-12-14T03:37:33;25.60;34.78
75799;DHT22;70933;44.692;37.776;2023-12-14T03:38:34;25.61;34.79
75799;DHT22;70933;44.692;37.776;2023-12-14T03:39:36;25.62;34.77
75799;DHT22;70933;44.692;37.776;2023-12-14T03:40:37;25.60;34.78
75799;DHT22;70933;44.692;37.776;2023-12-14T03:41:39;25.61;34.81
75799;DHT22;70933;44.692;37.776;2023-12-14T03:42:41;25.60;34.77
75799;DHT22;70933;44.692;37.776;2023-12-14T03:43:42;25.59;34.81
75799;DHT22;70933;44.692;37.776;2023-12-14T03:44:45;25.59;34.79
75799;DHT22;70933;44.692;37.776;2023-12-14T03:45:46;25.60;34.82
75799;DHT22;70933;44.692;37.776;2023-12-14T03:46:48;25.60;34.80
75799;DHT22;70933;44.692;37.776;2023-12-14T03:47:49;25.60;34.81
75799;DHT22;70933;44.692;37.776;2023-12-14T03:48:51;25.60;34.79
75799;DHT22;70933;44.692;37.776;2023-12-14T03:49:53;25.61;34.81
75799;DHT22;70933;44.692;37.776;2023-12-14T03:50:55;25.61;34.80
75799;DHT22;70933;44.692;37.776;2023-12-14T03:51:56;25.61;34.79
75799;DHT22;70933;44.692;37.776;2023-12-14T03:52:58;25.60;34.79
75799;DHT22;70933;44.692;37.776;2023-12-14T03:54:00;25.60;34.82
75799;DHT22;70933;44.692;37.776;2023-12-14T03:55:01;25.60;34.81
75799;DHT22;70933;44.692;37.776;2023-12-14T03:56:05;25.60;34.82
75799;DHT22;70933;44.692;37.776;2023-12-14T03:57:07;25.61;34.79
75799;DHT22;70933;44.692;37.776;2023-12-14T03:58:08;25.60;34.78
75799;DHT22;70933;44.692;37.776;2023-12-14T03:59:10;25.60;34.82
75799;DHT22;70933;44.692;37.776;2023-12-14T04:00:13;25.60;34.80
75799;DHT22;70933;44.692;37.776;2023-12-14T04:01:18;25.60;34.83
75799;DHT22;70933;44.692;37.776;2023-12-14T04:02:20;25.62;34.83
75799;DHT22;70933;44.692;37.776;2023-12-14T04:03:22;25.61;34.81
75799;DHT22;70933;44.692;37.776;2023-12-14T04:04:24;25.61;34.78
75799;DHT22;70933;44.692;37.776;2023-12-14T04:05:25;25.61;34.82
75799;DHT22;70933;44.692;37.776;2023-12-14T04:06:27;25.62;34.81
75799;DHT22;70933;44.692;37.776;2023-12-14T04:07:28;25.61;34.83
75799;DHT22;70933;44.692;37.776;2023-12-14T04:08:30;25.61;34.84
75799;DHT22;70933;44.692;37.776;2023-12-14T04:09:31;25.61;34.80
75799;DHT22;70933;44.692;37.776;2023-12-14T04:10:33;25.62;34.80
75799;DHT22;70933;44.692;37.776;2023-12-14T04:11:34;25.60;34.79
75799;DHT22;70933;44.692;37.776;2023-12-14T04:12:37;25.61;34.82
75799;DHT22;70933;44.692;37.776;2023-12-14T04:13:38;25.61;34.82
75799;DHT22;70933;44.692;37.776;2023-12-14T04:14:40;25.61;34.79
75799;DHT22;70933;44.692;37.776;2023-12-14T04:15:42;25.60;34.83
75799;DHT22;70933;44.692;37.776;2023-12-14T04:16:43;25.61;34.83
75799;DHT22;70933;44.692;37.776;2023-12-14T04:17:45;25.61;34.85
75799;DHT22;70933;44.692;37.776;2023-12-14T04:18:46;25.61;34.81
75799;DHT22;70933;44.692;37.776;2023-12-14T04:19:48;25.60;34.82
75799;DHT22;70933;44.692;37.776;2023-12-14T04:20:50;25.60;34.84
75799;DHT22;70933;44.692;37.776;2023-12-14T04:21:51;25.60;34.86
75799;DHT22;70933;44.692;37.776;2023-12-14T04:22:53;25.61;34.86
75799;DHT22;70933;44.692;37.776;2023-12-14T04:23:54;25.61;34.83
75799;DHT22;70933;44.692;37.776;2023-12-14T04:24:56;25.60;34.82
75799;DHT22;70933;44.692;37.776;2023-12-14T04:25:57;25.62;34.82
75799;DHT22;70933;44.692;37.776;2023-12-14T04:26:59;25.61;34.83
75799;DHT22;70933;44.692;37.776;2023-12-14T04:28:01;25.61;34.84
75799;DHT22;70933;44.692;37.776;2023-12-14T04:29:03;25.62;34.86
75799;DHT22;70933;44.692;37.776;2023-12-14T04:30:05;25.61;34.82
75799;DHT22;70933;44.692;37.776;2023-12-14T04:31:07;25.61;34.83
75799;DHT22;70933;44.692;37.776;2023-12-14T04:32:09;25.61;34.82
75799;DHT22;70933;44.692;37.776;2023-12-14T04:33:11;25.61;34.83
75799;DHT22;70933;44.692;37.776;2023-12-14T04:34:12;25.60;34.86
75799;DHT22;70933;44.692;37.776;2023-12-14T04:35:17;25.60;34.81
75799;DHT22;70933;44.692;37.776;2023-12-14T04:36:18;25.62;34.85
75799;DHT22;70933;44.692;37.776;2023-12-14T04:37:20;25.61;34.84
75799;DHT22;70933;44.692;37.776;2023-12-14T04:38:21;25.61;34.85
75799;DHT22;70933;44.692;37.776;2023-12-14T04:39:24;25.61;34.87
75799;DHT22;70933;44.692;37.776;2023-12-14T04:40:28;25.61;34.86
75799;DHT22;70933;44.692;37.776;2023-12-14T04:41:29;25.61;34.85
75799;DHT22;70933;44.692;37.776;2023-12-14T04:42:31;25.61;34.86
75799;DHT22;70933;44.692;37.776;2023-12-14T04:43:33;25.59;35.24
75799;DHT22;70933;44.692;37.776;2023-12-14T04:44:34;25.57;33.14
75799;DHT22;70933;44.692;37.776;2023-12-14T04:45:36;25.53;34.26
75799;DHT22;70933;44.692;37.776;2023-12-14T04:46:38;25.52;34.57
75799;DHT22;70933;44.692;37.776;2023-12-14T04:47:40;25.49;34.08
75799;DHT22;70933;44.692;37.776;2023-12-14T04:48:41;25.47;34.73
75799;DHT22;70933;44.692;37.776;2023-12-14T04:49:43;25.47;34.92
75799;DHT22;70933;44.692;37.776;2023-12-14T04:50:44;25.48;34.95
75799;DHT22;70933;44.692;37.776;2023-12-14T04:51:47;25.47;34.50
75799;DHT22;70933;44.692;37.776;2023-12-14T04:52:48;25.46;34.79
75799;DHT22;70933;44.692;37.776;2023-12-14T04:53:50;25.46;34.99
75799;DHT22;70933;44.692;37.776;2023-12-14T04:54:52;25.45;34.52
75799;DHT22;70933;44.692;37.776;2023-12-14T04:55:53;25.45;34.98
75799;DHT22;70933;44.692;37.776;2023-12-14T04:56:55;25.46;35.05
75799;DHT22;70933;44.692;37.776;2023-12-14T04:57:56;25.46;35.08
75799;DHT22;70933;44.692;37.776;2023-12-14T04:58:58;25.47;35.08
75799;DHT22;70933;44.692;37.776;2023-12-14T05:00:00;25.47;35.12
75799;DHT22;70933;44.692;37.776;2023-12-14T05:01:01;25.47;35.14
75799;DHT22;70933;44.692;37.776;2023-12-14T05:02:03;25.47;35.15
75799;DHT22;70933;44.692;37.776;2023-12-14T05:03:05;25.48;35.14
75799;DHT22;70933;44.692;37.776;2023-12-14T05:04:07;25.48;35.16
75799;DHT22;70933;44.692;37.776;2023-12-14T05:05:08;25.47;35.11
75799;DHT22;70933;44.692;37.776;2023-12-14T05:06:10;25.47;35.08
75799;DHT22;70933;44.692;37.776;2023-12-14T05:07:12;25.49;35.10
75799;DHT22;70933;44.692;37.776;2023-12-14T05:08:13;25.49;35.08
75799;DHT22;70933;44.692;37.776;2023-12-14T05:09:15;25.50;35.11
75799;DHT22;70933;44.692;37.776;2023-12-14T05:10:16;25.50;35.06
75799;DHT22;70933;44.692;37.776;2023-12-14T05:11:18;25.49;35.08
75799;DHT22;70933;44.692;37.776;2023-12-14T05:12:19;25.49;35.74
75799;DHT22;70933;44.692;37.776;2023-12-14T05:13:21;25.50;35.98
75799;DHT22;70933;44.692;37.776;2023-12-14T05:14:22;25.49;36.51
75799;DHT22;70933;44.692;37.776;2023-12-14T05:15:24;25.49;36.59
75799;DHT22;70933;44.692;37.776;2023-12-14T05:16:26;25.49;36.40
75799;DHT22;70933;44.692;37.776;2023-12-14T05:17:27;25.50;36.92
75799;DHT22;70933;44.692;37.776;2023-12-14T05:18:29;25.50;36.58
75799;DHT22;70933;44.692;37.776;2023-12-14T05:19:32;25.50;36.99
75799;DHT22;70933;44.692;37.776;2023-12-14T05:20:35;25.50;36.63
75799;DHT22;70933;44.692;37.776;2023-12-14T05:21:37;25.50;37.17
75799;DHT22;70933;44.692;37.776;2023-12-14T05:22:39;25.50;36.91
75799;DHT22;70933;44.692;37.776;2023-12-14T05:23:40;25.48;35.87
75799;DHT22;70933;44.692;37.776;2023-12-14T05:24:42;25.46;36.93
75799;DHT22;70933;44.692;37.776;2023-12-14T05:25:46;25.47;37.19
75799;DHT22;70933;44.692;37.776;2023-12-14T05:26:47;25.46;37.07
75799;DHT22;70933;44.692;37.776;2023-12-14T05:27:49;25.47;36.94
75799;DHT22;70933;44.692;37.776;2023-12-14T05:28:51;25.47;37.00
75799;DHT22;70933;44.692;37.776;2023-12-14T05:29:52;25.46;37.12
75799;DHT22;70933;44.692;37.776;2023-12-14T05:30:54;25.47;37.14
75799;DHT22;70933;44.692;37.776;2023-12-14T05:31:55;25.46;37.21
75799;DHT22;70933;44.692;37.776;2023-12-14T05:32:57;25.47;37.39
75799;DHT22;70933;44.692;37.776;2023-12-14T05:33:58;25.47;37.35
75799;DHT22;70933;44.692;37.776;2023-12-14T05:35:00;25.48;37.16
75799;DHT22;70933;44.692;37.776;2023-12-14T05:36:02;25.46;36.96
75799;DHT22;70933;44.692;37.776;2023-12-14T05:37:06;25.44;37.17
75799;DHT22;70933;44.692;37.776;2023-12-14T05:38:07;25.44;37.08
75799;DHT22;70933;44.692;37.776;2023-12-14T05:39:09;25.45;37.04
75799;DHT22;70933;44.692;37.776;2023-12-14T05:40:11;25.45;37.10
75799;DHT22;70933;44.692;37.776;2023-12-14T05:41:12;25.45;37.13
75799;DHT22;70933;44.692;37.776;2023-12-14T05:42:17;25.46;37.10
75799;DHT22;70933;44.692;37.776;2023-12-14T05:43:19;25.46;37.05
75799;DHT22;70933;44.692;37.776;2023-12-14T05:44:20;25.47;37.03
75799;DHT22;70933;44.692;37.776;2023-12-14T05:45:23;25.47;36.15
75799;DHT22;70933;44.692;37.776;2023-12-14T05:46:25;25.48;36.85
75799;DHT22;70933;44.692;37.776;2023-12-14T05:47:27;25.47;36.73
75799;DHT22;70933;44.692;37.776;2023-12-14T05:48:28;25.47;36.84
75799;DHT22;70933;44.692;37.776;2023-12-14T05:49:31;25.49;36.79
75799;DHT22;70933;44.692;37.776;2023-12-14T05:50:33;25.49;36.68
75799;DHT22;70933;44.692;37.776;2023-12-14T05:51:34;25.49;36.72
75799;DHT22;70933;44.692;37.776;2023-12-14T05:52:36;25.49;36.72
75799;DHT22;70933;44.692;37.776;2023-12-14T05:53:39;25.48;36.54
75799;DHT22;70933;44.692;37.776;2023-12-14T05:54:40;25.50;36.66
75799;DHT22;70933;44.692;37.776;2023-12-14T05:55:42;25.50;36.88
75799;DHT22;70933;44.692;37.776;2023-12-14T05:56:44;25.50;36.40
75799;DHT22;70933;44.692;37.776;2023-12-14T05:57:45;25.50;36.67
75799;DHT22;70933;44.692;37.776;2023-12-14T05:58:47;25.47;36.50
75799;DHT22;70933;44.692;37.776;2023-12-14T05:59:50;25.48;36.63
75799;DHT22;70933;44.692;37.776;2023-12-14T06:00:52;25.48;36.68
75799;DHT22;70933;44.692;37.776;2023-12-14T06:01:58;25.49;36.72
75799;DHT22;70933;44.692;37.776;2023-12-14T06:03:00;25.49;36.61
75799;DHT22;70933;44.692;37.776;2023-12-14T06:04:01;25.50;36.62
75799;DHT22;70933;44.692;37.776;2023-12-14T06:05:06;25.51;36.78
75799;DHT22;70933;44.692;37.776;2023-12-14T06:06:11;25.50;36.70
75799;DHT22;70933;44.692;37.776;2023-12-14T06:07:15;25.52;36.77
75799;DHT22;70933;44.692;37.776;2023-12-14T06:08:17;25.49;35.97
75799;DHT22;70933;44.692;37.776;2023-12-14T06:09:19;25.48;36.47
75799;DHT22;70933;44.692;37.776;2023-12-14T06:10:23;25.49;36.51
75799;DHT22;70933;44.692;37.776;2023-12-14T06:11:24;25.48;36.69
75799;DHT22;70933;44.692;37.776;2023-12-14T06:12:27;25.49;36.63
75799;DHT22;70933;44.692;37.776;2023-12-14T06:13:28;25.50;36.72
75799;DHT22;70933;44.692;37.776;2023-12-14T06:14:30;25.50;36.60
75799;DHT22;70933;44.692;37.776;2023-12-14T06:15:32;25.50;36.65
75799;DHT22;70933;44.692;37.776;2023-12-14T06:16:34;25.51;36.66
75799;DHT22;70933;44.692;37.776;2023-12-14T06:17:35;25.53;36.50
75799;DHT22;70933;44.692;37.776;2023-12-14T06:18:40;25.49;36.50
75799;DHT22;70933;44.692;37.776;2023-12-14T06:19:43;25.48;35.82
75799;DHT22;70933;44.692;37.776;2023-12-14T06:20:45;25.48;36.45
75799;DHT22;70933;44.692;37.776;2023-12-14T06:21:47;25.48;36.54
75799;DHT22;70933;44.692;37.776;2023-12-14T06:22:48;25.49;36.47
75799;DHT22;70933;44.692;37.776;2023-12-14T06:23:50;25.50;36.37
75799;DHT22;70933;44.692;37.776;2023-12-14T06:24:52;25.50;36.07